sensor_id;sensor_type;location;lat;lon;timestamp;P1;durP1;ratioP1;P2;durP2;ratioP2
63112;SDS011;49206;48.020;21.378;2022-07-23T00:01:28;10.32;;;7.13;;
63112;SDS011;49206;48.020;21.378;2022-07-23T00:11:33;8.75;;;7.82;;
63112;SDS011;49206;48.020;21.378;2022-07-23T00:21:35;9.75;;;6.53;;
63112;SDS011;49206;48.020;21.378;2022-07-23T00:31:38;10.75;;;6.45;;
63112;SDS011;49206;48.020;21.378;2022-07-23T00:41:40;9.43;;;6.57;;
63112;SDS011;49206;48.020;21.378;2022-07-23T00:51:43;10.68;;;6.10;;
63112;SDS011;49206;48.020;21.378;2022-07-23T01:01:45;11.18;;;7.07;;
63112;SDS011;49206;48.020;21.378;2022-07-23T01:11:51;13.98;;;7.20;;
63112;SDS011;49206;48.020;21.378;2022-07-23T01:21:53;9.93;;;6.25;;
63112;SDS011;49206;48.020;21.378;2022-07-23T01:31:59;10.23;;;6.78;;
63112;SDS011;49206;48.020;21.378;2022-07-23T01:42:01;10.63;;;6.10;;
63112;SDS011;49206;48.020;21.378;2022-07-23T01:52:06;9.95;;;6.20;;
63112;SDS011;49206;48.020;21.378;2022-07-23T02:02:18;10.95;;;6.85;;
63112;SDS011;49206;48.020;21.378;2022-07-23T02:12:20;8.52;;;6.55;;
63112;SDS011;49206;48.020;21.378;2022-07-23T02:22:23;10.63;;;6.55;;
63112;SDS011;49206;48.020;21.378;2022-07-23T02:32:25;10.63;;;6.80;;
63112;SDS011;49206;48.020;21.378;2022-07-23T02:42:28;12.27;;;6.45;;
63112;SDS011;49206;48.020;21.378;2022-07-23T03:02:36;9.50;;;6.22;;
63112;SDS011;49206;48.020;21.378;2022-07-23T03:12:39;11.07;;;6.78;;
63112;SDS011;49206;48.020;21.378;2022-07-23T03:32:44;12.95;;;6.05;;
63112;SDS011;49206;48.020;21.378;2022-07-23T03:42:46;8.98;;;6.38;;
63112;SDS011;49206;48.020;21.378;2022-07-23T03:52:49;13.10;;;6.95;;
63112;SDS011;49206;48.020;21.378;2022-07-23T04:02:51;15.30;;;6.65;;
63112;SDS011;49206;48.020;21.378;2022-07-23T04:22:57;15.80;;;8.73;;
63112;SDS011;49206;48.020;21.378;2022-07-23T04:33:00;9.82;;;5.97;;
63112;SDS011;49206;48.020;21.378;2022-07-23T04:43:03;9.82;;;6.75;;
63112;SDS011;49206;48.020;21.378;2022-07-23T04:53:11;9.75;;;5.72;;
63112;SDS011;49206;48.020;21.378;2022-07-23T05:03:15;10.38;;;5.68;;
63112;SDS011;49206;48.020;21.378;2022-07-23T05:13:19;9.07;;;5.90;;
63112;SDS011;49206;48.020;21.378;2022-07-23T05:23:25;9.10;;;5.75;;
63112;SDS011;49206;48.020;21.378;2022-07-23T05:33:27;9.43;;;5.15;;
63112;SDS011;49206;48.020;21.378;2022-07-23T05:43:30;7.93;;;4.85;;
63112;SDS011;49206;48.020;21.378;2022-07-23T05:53:38;5.68;;;4.93;;
63112;SDS011;49206;48.020;21.378;2022-07-23T06:03:47;10.95;;;4.90;;
63112;SDS011;49206;48.020;21.378;2022-07-23T06:13:50;7.00;;;4.03;;
63112;SDS011;49206;48.020;21.378;2022-07-23T06:23:55;7.78;;;4.47;;
63112;SDS011;49206;48.020;21.378;2022-07-23T06:33:58;6.45;;;4.43;;
63112;SDS011;49206;48.020;21.378;2022-07-23T06:44:01;7.93;;;4.43;;
63112;SDS011;49206;48.020;21.378;2022-07-23T06:54:06;12.30;;;4.22;;
63112;SDS011;49206;48.020;21.378;2022-07-23T07:04:08;7.18;;;4.22;;
63112;SDS011;49206;48.020;21.378;2022-07-23T07:14:11;20.65;;;4.47;;
63112;SDS011;49206;48.020;21.378;2022-07-23T07:24:13;8.02;;;4.40;;
63112;SDS011;49206;48.020;21.378;2022-07-23T07:34:16;6.65;;;4.22;;
63112;SDS011;49206;48.020;21.378;2022-07-23T07:44:19;6.78;;;4.35;;
63112;SDS011;49206;48.020;21.378;2022-07-23T07:54:21;6.25;;;4.13;;
63112;SDS011;49206;48.020;21.378;2022-07-23T08:04:25;8.25;;;5.03;;
63112;SDS011;49206;48.020;21.378;2022-07-23T08:14:28;4.75;;;4.22;;
63112;SDS011;49206;48.020;21.378;2022-07-23T08:24:30;6.80;;;4.57;;
63112;SDS011;49206;48.020;21.378;2022-07-23T08:34:33;7.25;;;4.55;;
63112;SDS011;49206;48.020;21.378;2022-07-23T08:44:35;4.57;;;3.78;;
63112;SDS011;49206;48.020;21.378;2022-07-23T08:54:38;7.57;;;3.92;;
63112;SDS011;49206;48.020;21.378;2022-07-23T09:04:41;5.00;;;4.00;;
63112;SDS011;49206;48.020;21.378;2022-07-23T09:14:44;5.00;;;3.60;;
63112;SDS011;49206;48.020;21.378;2022-07-23T09:25:03;5.03;;;4.03;;
63112;SDS011;49206;48.020;21.378;2022-07-23T09:35:12;8.40;;;3.65;;
63112;SDS011;49206;48.020;21.378;2022-07-23T09:45:16;5.63;;;3.83;;
63112;SDS011;49206;48.020;21.378;2022-07-23T09:55:19;5.38;;;4.13;;
63112;SDS011;49206;48.020;21.378;2022-07-23T10:05:21;4.82;;;3.65;;
63112;SDS011;49206;48.020;21.378;2022-07-23T10:15:52;9.57;;;4.20;;
63112;SDS011;49206;48.020;21.378;2022-07-23T10:25:59;6.32;;;3.78;;
63112;SDS011;49206;48.020;21.378;2022-07-23T10:36:27;7.70;;;4.30;;
63112;SDS011;49206;48.020;21.378;2022-07-23T10:46:53;4.40;;;3.65;;
63112;SDS011;49206;48.020;21.378;2022-07-23T10:57:06;6.45;;;4.10;;
63112;SDS011;49206;48.020;21.378;2022-07-23T11:07:10;5.95;;;3.65;;
63112;SDS011;49206;48.020;21.378;2022-07-23T11:17:18;6.45;;;4.15;;
63112;SDS011;49206;48.020;21.378;2022-07-23T11:27:36;3.78;;;3.28;;
63112;SDS011;49206;48.020;21.378;2022-07-23T11:37:43;5.32;;;3.42;;
63112;SDS011;49206;48.020;21.378;2022-07-23T11:47:47;6.03;;;3.95;;
63112;SDS011;49206;48.020;21.378;2022-07-23T11:57:51;6.90;;;4.40;;
63112;SDS011;49206;48.020;21.378;2022-07-23T12:07:56;15.80;;;4.60;;
63112;SDS011;49206;48.020;21.378;2022-07-23T12:18:01;4.80;;;3.42;;
63112;SDS011;49206;48.020;21.378;2022-07-23T12:28:08;4.45;;;3.60;;
63112;SDS011;49206;48.020;21.378;2022-07-23T12:38:15;4.38;;;3.25;;
63112;SDS011;49206;48.020;21.378;2022-07-23T12:48:28;4.95;;;4.00;;
63112;SDS011;49206;48.020;21.378;2022-07-23T12:58:39;4.32;;;3.63;;
63112;SDS011;49206;48.020;21.378;2022-07-23T13:08:59;5.20;;;3.95;;
63112;SDS011;49206;48.020;21.378;2022-07-23T13:19:04;4.47;;;3.72;;
63112;SDS011;49206;48.020;21.378;2022-07-23T13:29:12;5.75;;;3.72;;
63112;SDS011;49206;48.020;21.378;2022-07-23T13:39:18;11.75;;;4.43;;
63112;SDS011;49206;48.020;21.378;2022-07-23T13:49:20;5.03;;;3.67;;
63112;SDS011;49206;48.020;21.378;2022-07-23T13:59:23;5.53;;;3.38;;
63112;SDS011;49206;48.020;21.378;2022-07-23T14:09:27;4.35;;;3.60;;
63112;SDS011;49206;48.020;21.378;2022-07-23T14:19:31;4.97;;;3.92;;
63112;SDS011;49206;48.020;21.378;2022-07-23T14:29:33;6.00;;;3.47;;
63112;SDS011;49206;48.020;21.378;2022-07-23T14:49:42;3.80;;;3.40;;
63112;SDS011;49206;48.020;21.378;2022-07-23T14:59:49;4.20;;;3.47;;
63112;SDS011;49206;48.020;21.378;2022-07-23T15:09:53;10.10;;;3.72;;
63112;SDS011;49206;48.020;21.378;2022-07-23T15:19:55;5.03;;;3.78;;
63112;SDS011;49206;48.020;21.378;2022-07-23T15:29:57;6.60;;;3.63;;
63112;SDS011;49206;48.020;21.378;2022-07-23T15:40:01;4.10;;;3.70;;
63112;SDS011;49206;48.020;21.378;2022-07-23T15:50:10;4.88;;;3.85;;
63112;SDS011;49206;48.020;21.378;2022-07-23T16:00:12;6.25;;;4.03;;
63112;SDS011;49206;48.020;21.378;2022-07-23T16:10:15;6.90;;;4.05;;
63112;SDS011;49206;48.020;21.378;2022-07-23T16:20:18;5.65;;;4.20;;
63112;SDS011;49206;48.020;21.378;2022-07-23T16:30:20;4.20;;;3.80;;
63112;SDS011;49206;48.020;21.378;2022-07-23T16:40:23;6.72;;;4.43;;
63112;SDS011;49206;48.020;21.378;2022-07-23T16:50:25;7.45;;;4.40;;
63112;SDS011;49206;48.020;21.378;2022-07-23T17:00:28;4.70;;;4.22;;
63112;SDS011;49206;48.020;21.378;2022-07-23T17:10:30;10.20;;;4.38;;
63112;SDS011;49206;48.020;21.378;2022-07-23T17:20:33;6.55;;;4.32;;
63112;SDS011;49206;48.020;21.378;2022-07-23T17:30:35;5.93;;;4.40;;
63112;SDS011;49206;48.020;21.378;2022-07-23T17:40:38;8.27;;;5.03;;
63112;SDS011;49206;48.020;21.378;2022-07-23T17:50:43;9.35;;;4.43;;
63112;SDS011;49206;48.020;21.378;2022-07-23T18:00:45;9.32;;;5.25;;
63112;SDS011;49206;48.020;21.378;2022-07-23T18:10:48;8.88;;;4.97;;
63112;SDS011;49206;48.020;21.378;2022-07-23T18:20:50;9.70;;;4.70;;
63112;SDS011;49206;48.020;21.378;2022-07-23T18:30:53;7.28;;;3.40;;
63112;SDS011;49206;48.020;21.378;2022-07-23T18:40:55;11.70;;;5.65;;
63112;SDS011;49206;48.020;21.378;2022-07-23T18:50:58;8.85;;;6.10;;
63112;SDS011;49206;48.020;21.378;2022-07-23T19:01:00;5.95;;;5.43;;
63112;SDS011;49206;48.020;21.378;2022-07-23T19:11:03;10.50;;;6.43;;
63112;SDS011;49206;48.020;21.378;2022-07-23T19:21:06;8.85;;;6.20;;
63112;SDS011;49206;48.020;21.378;2022-07-23T19:31:09;6.07;;;5.40;;
63112;SDS011;49206;48.020;21.378;2022-07-23T19:41:11;8.68;;;6.80;;
63112;SDS011;49206;48.020;21.378;2022-07-23T19:51:14;6.97;;;5.65;;
63112;SDS011;49206;48.020;21.378;2022-07-23T20:01:17;8.75;;;6.43;;
63112;SDS011;49206;48.020;21.378;2022-07-23T20:11:20;11.02;;;6.20;;
63112;SDS011;49206;48.020;21.378;2022-07-23T20:21:22;8.88;;;6.85;;
63112;SDS011;49206;48.020;21.378;2022-07-23T20:31:25;7.70;;;6.90;;
63112;SDS011;49206;48.020;21.378;2022-07-23T20:41:27;8.70;;;6.13;;
63112;SDS011;49206;48.020;21.378;2022-07-23T20:51:30;9.30;;;6.53;;
63112;SDS011;49206;48.020;21.378;2022-07-23T21:01:32;7.65;;;6.70;;
63112;SDS011;49206;48.020;21.378;2022-07-23T21:11:35;9.05;;;6.53;;
63112;SDS011;49206;48.020;21.378;2022-07-23T21:21:37;7.97;;;6.75;;
63112;SDS011;49206;48.020;21.378;2022-07-23T21:31:40;8.98;;;6.80;;
63112;SDS011;49206;48.020;21.378;2022-07-23T21:41:43;9.15;;;7.47;;
63112;SDS011;49206;48.020;21.378;2022-07-23T21:51:46;11.20;;;8.10;;
63112;SDS011;49206;48.020;21.378;2022-07-23T22:01:49;10.57;;;8.15;;
63112;SDS011;49206;48.020;21.378;2022-07-23T22:11:52;10.80;;;8.18;;
63112;SDS011;49206;48.020;21.378;2022-07-23T22:21:54;10.18;;;7.47;;
63112;SDS011;49206;48.020;21.378;2022-07-23T22:31:56;8.80;;;7.22;;
63112;SDS011;49206;48.020;21.378;2022-07-23T22:41:59;9.50;;;7.70;;
63112;SDS011;49206;48.020;21.378;2022-07-23T22:52:01;10.43;;;7.40;;
63112;SDS011;49206;48.020;21.378;2022-07-23T23:02:07;7.82;;;6.78;;
63112;SDS011;49206;48.020;21.378;2022-07-23T23:12:10;7.68;;;6.88;;
63112;SDS011;49206;48.020;21.378;2022-07-23T23:22:12;8.65;;;6.22;;
63112;SDS011;49206;48.020;21.378;2022-07-23T23:32:15;7.97;;;7.18;;
63112;SDS011;49206;48.020;21.378;2022-07-23T23:42:17;8.88;;;7.30;;
63112;SDS011;49206;48.020;21.378;2022-07-23T23:52:19;8.95;;;6.78;;
